Flight Track Log - Related Links

Times and Time Zones

All times are in EDT time to prevent confusion due to time zone crossing. See the KAL982 flight status page for this flight to view local times or setup timezone preferences in your user account.

Time Position Orientation Groundspeed Altitude Reporting Facility
EDT Latitude Longitude Course Direction KTS MPH feet Rate Location/Type
Sat 01:27:00 AM 42.6959 131.4044 218° Southwest  Level Estimated
Sat 01:28:00 AM 42.6517 131.3583 218° Southwest  Level Estimated
Sat 01:29:00 AM 42.6076 131.3122 218° Southwest  Level Estimated
Sat 01:30:00 AM 42.5635 131.2662 218° Southwest  Level Estimated
Sat 01:31:00 AM 42.5193 131.2203 217° Southwest  Level Estimated
Sat 01:32:00 AM 42.4751 131.1744 217° Southwest  Level Estimated
Sat 01:33:00 AM 42.4309 131.1286 217° Southwest  Level Estimated
Sat 01:34:00 AM 42.3867 131.0829 217° Southwest  Level Estimated
Sat 01:35:00 AM 42.3425 131.0372 217° Southwest  Level Estimated
Sat 01:36:00 AM 42.2982 130.9916 217° Southwest  Level Estimated
Sat 01:37:00 AM 42.2539 130.9461 217° Southwest  Level Estimated
Sat 01:38:00 AM 42.2096 130.9006 217° Southwest  Level Estimated
Sat 01:39:00 AM 42.1653 130.8552 217° Southwest  Level Estimated
Sat 01:40:00 AM 42.1210 130.8098 217° Southwest  Level Estimated
Sat 01:41:00 AM 42.0767 130.7645 217° Southwest  Level Estimated
Sat 01:42:00 AM 42.0323 130.7193 217° Southwest  Level Estimated
Sat 01:43:00 AM 41.9879 130.6741 217° Southwest  Level Estimated
Sat 01:44:00 AM 41.9435 130.6290 217° Southwest  Level Estimated
Sat 01:45:00 AM 41.8991 130.5840 217° Southwest  Level Estimated
Sat 01:46:00 AM 41.8547 130.5390 217° Southwest  Level Estimated
Sat 01:47:00 AM 41.8102 130.4941 217° Southwest  Level Estimated
Sat 01:48:00 AM 41.7658 130.4492 217° Southwest  Level Estimated
Sat 01:49:00 AM 41.7213 130.4044 217° Southwest  Level Estimated
Sat 01:50:00 AM 41.6768 130.3597 217° Southwest  Level Estimated
Sat 01:51:00 AM 41.6322 130.3150 217° Southwest  Level Estimated
Sat 01:52:00 AM 41.5877 130.2704 217° Southwest  Level Estimated
Sat 01:53:00 AM 41.5432 130.2259 217° Southwest  Level Estimated
Sat 01:54:00 AM 41.4986 130.1814 217° Southwest  Level Estimated
Sat 01:55:00 AM 41.4540 130.1370 217° Southwest  Level Estimated
Sat 01:56:00 AM 41.4094 130.0926 217° Southwest  Level Estimated
Sat 01:57:00 AM 41.3648 130.0483 217° Southwest  Level Estimated
Sat 01:58:00 AM 41.3201 130.0041 217° Southwest  Level Estimated
Sat 01:59:00 AM 41.2755 129.9599 217° Southwest  Level Estimated
Sat 02:00:00 AM 41.2308 129.9158 217° Southwest  Level Estimated
Sat 02:01:00 AM 41.1861 129.8717 217° Southwest  Level Estimated
Sat 02:02:00 AM 41.1414 129.8277 217° Southwest  Level Estimated
Sat 02:03:00 AM 41.0967 129.7838 217° Southwest  Level Estimated
Sat 02:04:00 AM 41.0519 129.7399 216° Southwest  Level Estimated
Sat 02:05:00 AM 41.0072 129.6961 216° Southwest  Level Estimated
Sat 02:06:00 AM 40.9624 129.6523 216° Southwest  Level Estimated
Sat 02:07:00 AM 40.9176 129.6086 216° Southwest  Level Estimated
Sat 02:08:00 AM 40.8728 129.5650 216° Southwest  Level Estimated
Sat 02:09:00 AM 40.8280 129.5214 216° Southwest  Level Estimated
Sat 02:10:00 AM 40.7831 129.4779 216° Southwest  Level Estimated
Sat 02:11:00 AM 40.7383 129.4344 216° Southwest  Level Estimated
Sat 02:12:00 AM 40.6934 129.3910 216° Southwest  Level Estimated
Sat 02:13:00 AM 40.6485 129.3477 216° Southwest  Level Estimated
Sat 02:14:00 AM 40.6036 129.3044 216° Southwest  Level Estimated
Sat 02:15:00 AM 40.5587 129.2612 216° Southwest  Level Estimated
Sat 02:16:00 AM 40.5137 129.2180 216° Southwest  Level Estimated
Sat 02:17:00 AM 40.4688 129.1749 216° Southwest  Level Estimated
Sat 02:18:00 AM 40.4238 129.1318 216° Southwest  Level Estimated
Sat 02:19:00 AM 40.3788 129.0888 216° Southwest  Level Estimated
Sat 02:20:00 AM 40.3338 129.0459 216° Southwest  Level Estimated
Sat 02:21:00 AM 40.2888 129.0030 216° Southwest  Level Estimated
Sat 02:22:00 AM 40.2438 128.9602 216° Southwest  Level Estimated
Sat 02:23:00 AM 40.1987 128.9174 216° Southwest  Level Estimated
Sat 02:24:00 AM 40.1537 128.8747 216° Southwest  Level Estimated
Sat 02:25:00 AM 40.1086 128.8320 216° Southwest  Level Estimated
Sat 02:26:00 AM 40.0635 128.7894 216° Southwest  Level Estimated
Sat 02:27:00 AM 40.0184 128.7469 216° Southwest  Level Estimated
Sat 02:28:00 AM 39.9733 128.7044 216° Southwest  Level Estimated
Sat 02:29:00 AM 39.9281 128.6620 216° Southwest  Level Estimated
Sat 02:30:00 AM 39.8830 128.6196 216° Southwest  Level Estimated
Sat 02:31:00 AM 39.8378 128.5773 216° Southwest  Level Estimated
Sat 02:32:00 AM 39.7926 128.5350 216° Southwest  Level Estimated
Sat 02:33:00 AM 39.7474 128.4928 216° Southwest  Level Estimated
Sat 02:34:00 AM 39.7022 128.4507 216° Southwest  Level Estimated
Sat 02:35:00 AM 39.6570 128.4086 216° Southwest  Level Estimated
Sat 02:36:00 AM 39.6117 128.3665 216° Southwest  Level Estimated
Sat 02:37:00 AM 39.5664 128.3245 216° Southwest  Level Estimated
Sat 02:38:00 AM 39.5212 128.2826 216° Southwest  Level Estimated
Sat 02:39:00 AM 39.4759 128.2407 216° Southwest  Level Estimated
Sat 02:40:00 AM 39.4306 128.1989 215° Southwest  Level Estimated
Sat 02:41:00 AM 39.3852 128.1571 215° Southwest  Level Estimated
Sat 02:42:00 AM 39.3399 128.1154 215° Southwest  Level Estimated
Sat 02:43:00 AM 39.2946 128.0738 215° Southwest  Level Estimated
Sat 02:44:00 AM 39.2492 128.0322 215° Southwest  Level Estimated
Sat 02:45:00 AM 39.2038 127.9906 215° Southwest  Level Estimated
Sat 02:46:00 AM 39.1584 127.9491 215° Southwest  Level Estimated
Sat 02:47:00 AM 39.1130 127.9077 215° Southwest  Level Estimated
Sat 02:48:00 AM 39.0676 127.8663 215° Southwest  Level Estimated
Sat 02:49:00 AM 39.0221 127.8249 215° Southwest  Level Estimated
Sat 02:50:00 AM 38.9767 127.7837 215° Southwest  Level Estimated
Sat 02:51:00 AM 38.9312 127.7424 215° Southwest  Level Estimated
Sat 02:52:00 AM 38.8857 127.7012 215° Southwest  Level Estimated
Sat 02:53:00 AM 38.8402 127.6601 215° Southwest  Level Estimated
Sat 02:54:00 AM 38.7947 127.6190 215° Southwest  Level Estimated
Sat 02:55:00 AM 38.7491 127.5780 215° Southwest  Level Estimated
Sat 02:56:00 AM 38.7036 127.5370 215° Southwest  Level Estimated
Sat 02:57:00 AM 38.6581 127.4961 215° Southwest  Level Estimated
Sat 02:58:00 AM 38.6125 127.4553 215° Southwest  Level Estimated
Sat 02:59:00 AM 38.5669 127.4145 215° Southwest  Level Estimated
Sat 03:00:00 AM 38.5213 127.3737 215° Southwest  Level Estimated
Sat 03:01:00 AM 38.4757 127.3330 215° Southwest  Level Estimated
Sat 03:02:00 AM 38.4300 127.2923 215° Southwest  Level Estimated
Sat 03:03:00 AM 38.3844 127.2517 215° Southwest  Level Estimated
Sat 03:04:00 AM 38.3387 127.2112 215° Southwest  Level Estimated
Sat 03:05:00 AM 38.2931 127.1706 215° Southwest  Level Estimated
Sat 03:06:00 AM 38.2474 127.1302 215° Southwest  Level Estimated
Sat 03:07:00 AM 38.2017 127.0898 215° Southwest  Level Estimated
Sat 03:08:00 AM 38.1560 127.0495 215° Southwest  Level Estimated
Sat 03:09:00 AM 38.1102 127.0091 215° Southwest  Level Estimated
Sat 03:10:00 AM 38.0645 126.9689 215° Southwest  Level Estimated
Sat 03:11:00 AM 38.0188 126.9287 215° Southwest  Level Estimated
Sat 03:12:00 AM 37.9730 126.8885 215° Southwest  Level Estimated
Sat 03:13:00 AM 37.9272 126.8484 215° Southwest  Level Estimated
Sat 03:14:00 AM 37.8814 126.8084 215° Southwest  Level Estimated
Sat 03:15:00 AM 37.8356 126.7684 215° Southwest  Level Estimated
Sat 03:16:00 AM 37.7898 126.7284 215° Southwest  Level Estimated
Sat 03:17:00 AM 37.7440 126.6886 215° Southwest  Level Estimated
Sat 03:18:00 AM 37.6981 126.6487 215° Southwest  Level Estimated
Sat 03:19:00 AM 37.6522 126.6089 214° Southwest  Level Estimated
Sat 03:20:00 AM 37.6064 126.5691 214° Southwest  Level Estimated
Sat 03:21:00 AM 37.5605 126.5294 214° Southwest  Level Estimated
Sat 03:22:00 AM 37.5146 126.4898 214° Southwest  Level Estimated
Sat 03:23:00 AM 37.4691 126.4505 214° Southwest  Level Estimated
Sat 03:24:00 AM 37.4691 126.4505 335° Northwest  Level Estimated
Sat 03:25:00 AM 37.4691 126.4505 335° Northwest  Level Estimated
Sat 03:26:00 AM 37.4691 126.4505 335° Northwest  Level Estimated
Sat 03:27:00 AM 37.4691 126.4505 335° Northwest  Level Estimated
Sat 03:28:00 AM 37.4691 126.4505 335° Northwest  Level Estimated
Sat 03:29:00 AM 37.4691 126.4505 335° Northwest  Level Estimated
Sat 03:30:00 AM 37.4691 126.4505 335° Northwest  Level Estimated
Sat 03:31:00 AM 37.4691 126.4505 335° Northwest  Level Estimated
Sat 03:32:00 AM 37.4691 126.4505 335° Northwest  Level Estimated
Sat 03:33:00 AM 37.4691 126.4505 335° Northwest  Level Estimated
Sat 03:34:00 AM 37.4691 126.4505 335° Northwest  Level Estimated
Sat 03:35:00 AM 37.4691 126.4505 335° Northwest  Level Estimated
Sat 03:36:00 AM 37.4691 126.4505 335° Northwest  Level Estimated
Sat 03:37:00 AM 37.4691 126.4505 335° Northwest  Level Estimated
Sat 03:38:00 AM 37.4691 126.4505 335° Northwest  Level Estimated
Sat 03:39:00 AM 37.4691 126.4505 335° Northwest  Level Estimated

Login

Don't have an account? Register now (free) for customized features, flight alerts, and more!